Nordkinn — OZ2080 — position and weather

sailwx.info

Track history (hours):
 
Tides and Currents Weather Stations Pressure Air Temp Water Temp Dewpoint Dewpoint Depression Visibility Wind Speed Wind Dir Waves Ship Positions

Nordkinn

Last reported at 2018-Jun-21 08:30 UTC. Time now 2018-Jun-21 08:45 UTC.
Position N 63°34' E 009°20'.

Length 80 m; draft 5.2 m.

Type: Cargo ship. MMSI: 231711000.

Date/timePositionNaut miles runAvg speedWind from/ knotsBaromVisibWave heightAir tempDewpointWater temp
2018-Jun-21 08:30N 63°34' E 009°20'612.6
2018-Jun-21 08:00N 63°39' E 009°29'713.3
2018-Jun-21 07:29N 63°46' E 009°32'713.4
2018-Jun-21 06:59N 63°51' E 009°40'612.8
2018-Jun-21 06:30N 63°57' E 009°47'712.8
2018-Jun-21 05:59N 64°03' E 009°50'713.7
2018-Jun-21 05:30N 64°07' E 010°02'713.3
2018-Jun-21 05:00N 64°12' E 010°12'611.7
2018-Jun-21 04:30N 64°17' E 010°20'713.3
2018-Jun-21 04:01N 64°23' E 010°25'612.4
2018-Jun-21 03:30N 64°29' E 010°28'612.1
2018-Jun-21 03:00N 64°34' E 010°38'4 8.3
2018-Jun-21 02:30N 64°33' E 010°48'0 0.4
2018-Jun-21 02:00N 64°33' E 010°48'5 9.4
2018-Jun-21 01:30N 64°37' E 010°46'613.0
2018-Jun-21 01:00N 64°43' E 010°54'714.0
2018-Jun-21 00:31N 64°47' E 011°05'713.2
2018-Jun-21 00:00N 64°52' E 011°17'1 2.2
2018-Jun-20 23:30N 64°53' E 011°18'0 0.0
2018-Jun-20 23:00N 64°53' E 011°18'2 3.5
2018-Jun-20 22:30N 64°54' E 011°21'713.5
2018-Jun-20 22:00N 64°58' E 011°34'713.3
2018-Jun-20 21:30N 65°03' E 011°44'713.4
2018-Jun-20 21:00N 65°09' E 011°50'713.6
2018-Jun-20 20:30N 65°16' E 011°56'713.0
2018-Jun-20 19:59N 65°22' E 012°03'611.4
2018-Jun-20 19:27N 65°28' E 011°57'612.6
2018-Jun-20 18:59N 65°33' E 012°03'612.6
2018-Jun-20 18:30N 65°37' E 012°13'5 7.8
2018-Jun-20 17:55N 65°41' E 012°20'0 0.2
2018-Jun-20 17:30N 65°41' E 012°20'0 0.0
2018-Jun-20 17:00N 65°41' E 012°20'0 0.1
2018-Jun-20 16:29N 65°41' E 012°20'0 0.1
2018-Jun-20 16:00N 65°41' E 012°20'1 1.3
2018-Jun-20 15:29N 65°41' E 012°18'1 1.1
2018-Jun-20 14:58N 65°41' E 012°17'1 1.4
2018-Jun-20 14:30N 65°41' E 012°18'1 2.2
2018-Jun-20 14:00N 65°42' E 012°17'3 5.3
2018-Jun-20 13:30N 65°45' E 012°18'611.1
2018-Jun-20 13:00N 65°50' E 012°22'510.4
2018-Jun-20 12:29N 65°55' E 012°23'510.1
2018-Jun-20 12:00N 65°59' E 012°30'510.0
2018-Jun-20 11:28N 66°04' E 012°38'5 9.7
2018-Jun-20 11:00N 66°07' E 012°45'5 9.8
2018-Jun-20 10:30N 66°09' E 012°56'510.7
2018-Jun-20 10:00N 66°11' E 013°09'510.7
2018-Jun-20 09:30N 66°14' E 013°19'5 9.3
2018-Jun-20 08:59N 66°15' E 013°31'5 9.5
2018-Jun-20 08:30N 66°15' E 013°42'5 8.9
2018-Jun-20 08:00N 66°16' E 013°53'4 8.9
2018-Jun-20 07:30N 66°18' E 014°03'2 4.0
2018-Jun-20 06:59N 66°19' E 014°07'0 0.0
2018-Jun-20 06:30N 66°19' E 014°07'0 0.0
2018-Jun-20 06:00N 66°19' E 014°07'0 0.0
2018-Jun-20 05:30N 66°19' E 014°07'0 0.0
2018-Jun-20 04:58N 66°19' E 014°07'0 0.0
2018-Jun-20 04:30N 66°19' E 014°07'0 0.0
2018-Jun-20 03:59N 66°19' E 014°07'0 0.0
2018-Jun-20 03:30N 66°19' E 014°07'0 0.0
2018-Jun-20 03:00N 66°19' E 014°07'0 0.0
2018-Jun-20 02:30N 66°19' E 014°07'0 0.0
2018-Jun-20 02:00N 66°19' E 014°07'0 0.0
2018-Jun-20 01:30N 66°19' E 014°07'0 0.0
2018-Jun-20 00:59N 66°19' E 014°07'0 0.0
2018-Jun-20 00:30N 66°19' E 014°07'0 0.0
2018-Jun-20 00:00N 66°19' E 014°07'0 0.0
2018-Jun-19 23:30N 66°19' E 014°07'0 0.0
2018-Jun-19 23:00N 66°19' E 014°07'0 0.0
2018-Jun-19 22:29N 66°19' E 014°07'0 0.0
2018-Jun-19 22:00N 66°19' E 014°07'0 0.0
2018-Jun-19 21:30N 66°19' E 014°07'0 0.0
2018-Jun-19 21:00N 66°19' E 014°07'2 3.9
2018-Jun-19 20:30N 66°18' E 014°03'612.7
2018-Jun-19 20:00N 66°15' E 013°49'612.0
2018-Jun-19 19:30N 66°15' E 013°34'611.7
2018-Jun-19 19:00N 66°14' E 013°20'612.7
2018-Jun-19 18:30N 66°11' E 013°07'713.4
2018-Jun-19 18:00N 66°08' E 012°51'714.1
2018-Jun-19 17:30N 66°04' E 012°38'714.2
2018-Jun-19 16:59N 65°58' E 012°27'713.8
2018-Jun-19 16:30N 65°51' E 012°22'713.6
2018-Jun-19 16:00N 65°45' E 012°18'4 8.2
2018-Jun-19 15:30N 65°41' E 012°20'0 0.3
2018-Jun-19 15:00N 65°41' E 012°20'0 0.1
2018-Jun-19 14:30N 65°41' E 012°20'0 0.1
2018-Jun-19 14:00N 65°41' E 012°20'0 0.1
2018-Jun-19 13:30N 65°41' E 012°20'1 2.6
2018-Jun-19 12:57N 65°42' E 012°17'511.8
2018-Jun-19 12:29N 65°47' E 012°20'612.0
2018-Jun-19 12:00N 65°53' E 012°22'611.4
2018-Jun-19 11:29N 65°58' E 012°28'711.9
2018-Jun-19 10:56N 66°04' E 012°38'511.9
2018-Jun-19 10:30N 66°07' E 012°47'612.8
2018-Jun-19 10:00N 66°10' E 013°02'713.4
2018-Jun-19 09:30N 66°13' E 013°16'612.2
2018-Jun-19 09:00N 66°15' E 013°30'612.7
2018-Jun-19 08:30N 66°15' E 013°46'612.1
2018-Jun-19 08:00N 66°18' E 014°00'3 6.6
2018-Jun-19 07:30N 66°19' E 014°07'0 0.0
2018-Jun-19 07:00N 66°19' E 014°07'0 0.0
2018-Jun-19 06:30N 66°19' E 014°07'0 0.0
2018-Jun-19 06:00N 66°19' E 014°07'0 0.0
2018-Jun-19 05:30N 66°19' E 014°07'1 1.0
2018-Jun-19 04:59N 66°19' E 014°06'612.3
2018-Jun-19 04:30N 66°16' E 013°54'612.4
2018-Jun-19 04:00N 66°14' E 013°39'611.4
2018-Jun-19 03:30N 66°14' E 013°25'510.8
2018-Jun-19 03:00N 66°12' E 013°13'612.3
2018-Jun-19 02:30N 66°09' E 012°58'713.0
2018-Jun-19 01:59N 66°06' E 012°44'713.6
2018-Jun-19 01:30N 66°01' E 012°33'713.7
2018-Jun-19 01:00N 65°56' E 012°24'713.8
2018-Jun-19 00:30N 65°49' E 012°21'713.6
2018-Jun-19 00:00N 65°42' E 012°16'713.6
2018-Jun-18 23:30N 65°36' E 012°11'713.7
2018-Jun-18 23:00N 65°30' E 012°01'611.9
2018-Jun-18 22:30N 65°25' E 011°58'510.6
2018-Jun-18 22:00N 65°20' E 012°01'713.3
2018-Jun-18 21:30N 65°14' E 011°54'713.2
2018-Jun-18 21:00N 65°07' E 011°49'613.0
2018-Jun-18 20:31N 65°02' E 011°41'713.2
2018-Jun-18 20:00N 64°59' E 011°26'713.4
2018-Jun-18 19:31N 64°53' E 011°19'2 4.3
2018-Jun-18 19:01N 64°52' E 011°17'1 2.2
2018-Jun-18 18:31N 64°52' E 011°15'0 0.1
2018-Jun-18 18:01N 64°52' E 011°15'0 0.0
2018-Jun-18 17:31N 64°52' E 011°15'0 0.0
2018-Jun-18 17:01N 64°52' E 011°15'0 0.1
2018-Jun-18 16:31N 64°52' E 011°15'4 7.3
2018-Jun-18 16:00N 64°49' E 011°09'714.1
2018-Jun-18 15:30N 64°44' E 010°57'714.3
2018-Jun-18 15:00N 64°39' E 010°46'714.1
2018-Jun-18 14:30N 64°33' E 010°36'713.6
2018-Jun-18 14:00N 64°27' E 010°28'713.6
2018-Jun-18 13:30N 64°21' E 010°22'613.0
2018-Jun-18 13:00N 64°15' E 010°17'713.5
2018-Jun-18 12:30N 64°10' E 010°07'713.3
2018-Jun-18 11:59N 64°05' E 009°56'612.9
2018-Jun-18 11:30N 63°60' E 009°47'713.4
2018-Jun-18 11:00N 63°53' E 009°45'713.8
2018-Jun-18 10:30N 63°48' E 009°35'713.3
2018-Jun-18 10:00N 63°42' E 009°30'4 8.2
2018-Jun-18 09:30N 63°38' E 009°35'611.3
2018-Jun-18 09:00N 63°37' E 009°48'714.2
2018-Jun-18 08:29N 63°31' E 009°54'612.7
2018-Jun-18 08:00N 63°29' E 010°08'713.9
2018-Jun-18 07:31N 63°28' E 010°23'2 3.9
2018-Jun-18 07:00N 63°27' E 010°25'0 0.4
2018-Jun-18 06:30N 63°27' E 010°25'5 9.4
2018-Jun-18 06:00N 63°28' E 010°15'714.1
2018-Jun-18 05:30N 63°29' E 009°59'611.9
2018-Jun-18 05:00N 63°34' E 009°53'0 0.7
2018-Jun-18 04:29N 63°34' E 009°54'0 0.0
2018-Jun-18 04:00N 63°34' E 009°54'0 0.0
2018-Jun-18 03:30N 63°34' E 009°54'0 0.0
2018-Jun-18 03:00N 63°34' E 009°54'0 0.0
2018-Jun-18 02:30N 63°34' E 009°54'0 0.0
2018-Jun-18 02:00N 63°34' E 009°54'0 0.0
2018-Jun-18 01:30N 63°34' E 009°54'0 0.0
2018-Jun-18 01:00N 63°34' E 009°54'0 0.0
2018-Jun-18 00:29N 63°34' E 009°54'0 0.0
2018-Jun-18 00:00N 63°34' E 009°54'0 0.0
2018-Jun-17 23:29N 63°34' E 009°54'0 0.0
2018-Jun-17 23:00N 63°34' E 009°54'0 0.0
2018-Jun-17 22:30N 63°34' E 009°54'0 0.0
2018-Jun-17 22:00N 63°34' E 009°54'0 0.0
2018-Jun-17 21:30N 63°34' E 009°54'0 0.0
2018-Jun-17 21:00N 63°34' E 009°54'0 0.0
2018-Jun-17 20:30N 63°34' E 009°54'0 0.0
2018-Jun-17 20:00N 63°34' E 009°54'0 0.0
2018-Jun-17 19:30N 63°34' E 009°54'0 0.0
2018-Jun-17 19:00N 63°34' E 009°54'0 0.0
2018-Jun-17 18:29N 63°34' E 009°54'0 0.0
2018-Jun-17 18:00N 63°34' E 009°54'0 0.0
2018-Jun-17 17:30N 63°34' E 009°54'0 0.0
2018-Jun-17 17:00N 63°34' E 009°54'0 0.0
2018-Jun-17 16:30N 63°34' E 009°54'1 2.2
2018-Jun-17 15:59N 63°33' E 009°53'1 1.6
2018-Jun-17 15:29N 63°32' E 009°53'2 3.7
2018-Jun-17 15:00N 63°34' E 009°52'1 1.8
2018-Jun-17 14:30N 63°33' E 009°52'1 1.2
2018-Jun-17 14:00N 63°33' E 009°53'3 7.1
2018-Jun-17 13:30N 63°29' E 009°55'1 2.1
2018-Jun-17 13:00N 63°28' E 009°57'612.5
2018-Jun-17 12:31N 63°30' E 010°11'816.6
2018-Jun-17 12:00N 63°34' E 010°26'5 9.9
2018-Jun-17 11:31N 63°31' E 010°19'815.9
2018-Jun-17 11:01N 63°28' E 010°02'612.5
2018-Jun-17 10:30N 63°33' E 009°52'1 1.9
2018-Jun-17 10:00N 63°34' E 009°54'0 0.0
2018-Jun-17 09:29N 63°34' E 009°54'0 0.0
2018-Jun-17 09:00N 63°34' E 009°54'0 0.0
2018-Jun-17 08:30N 63°34' E 009°54'0 0.0
2018-Jun-17 07:59N 63°34' E 009°54'0 0.0
2018-Jun-17 07:28N 63°34' E 009°54'0 0.0
2018-Jun-17 07:00N 63°34' E 009°54'0 0.0
2018-Jun-17 06:30N 63°34' E 009°54'0 0.0
2018-Jun-17 06:00N 63°34' E 009°54'0 0.0
2018-Jun-17 05:30N 63°34' E 009°54'0 0.0
2018-Jun-17 05:00N 63°34' E 009°54'0 0.0
2018-Jun-17 04:30N 63°34' E 009°54'0 0.0
2018-Jun-17 04:00N 63°34' E 009°54'0 0.0
2018-Jun-17 03:30N 63°34' E 009°54'0 0.0
2018-Jun-17 03:00N 63°34' E 009°54'0 0.0
2018-Jun-17 02:30N 63°34' E 009°54'0 0.0
2018-Jun-17 02:00N 63°34' E 009°54'0 0.0
2018-Jun-17 01:30N 63°34' E 009°54'0 0.0
2018-Jun-17 01:00N 63°34' E 009°54'0 0.0
2018-Jun-17 00:30N 63°34' E 009°54'0 0.0
2018-Jun-17 00:00N 63°34' E 009°54'0 0.0
2018-Jun-16 23:30N 63°34' E 009°54'0 0.0
2018-Jun-16 22:58N 63°34' E 009°54'0 0.0
2018-Jun-16 22:30N 63°34' E 009°54'0 0.0
2018-Jun-16 22:00N 63°34' E 009°54'0 0.0
2018-Jun-16 21:30N 63°34' E 009°54'0 0.0
2018-Jun-16 21:00N 63°34' E 009°54'0 0.0
2018-Jun-16 20:31N 63°34' E 009°54'0 0.0
2018-Jun-16 19:59N 63°34' E 009°54'0 0.0
2018-Jun-16 19:30N 63°34' E 009°54'0 0.0
2018-Jun-16 18:59N 63°34' E 009°54'0 0.0
2018-Jun-16 18:31N 63°34' E 009°54'0 0.0
2018-Jun-16 17:59N 63°34' E 009°54'0 0.0
2018-Jun-16 17:30N 63°34' E 009°54'0 0.0
2018-Jun-16 17:00N 63°34' E 009°54'0 0.0
2018-Jun-16 16:30N 63°34' E 009°54'0 0.1
2018-Jun-16 16:00N 63°34' E 009°54'3 5.5
2018-Jun-16 15:30N 63°31' E 009°53'713.7
2018-Jun-16 15:00N 63°29' E 010°08'816.1
2018-Jun-16 14:31N 63°33' E 010°24'510.1
2018-Jun-16 14:00N 63°35' E 010°34'815.5
2018-Jun-16 13:29N 63°30' E 010°20'815.4
2018-Jun-16 12:59N 63°28' E 010°03'713.4
2018-Jun-16 12:30N 63°32' E 009°52'1 2.2
2018-Jun-16 11:59N 63°33' E 009°51'1 2.3
2018-Jun-16 11:31N 63°33' E 009°53'3 5.2
2018-Jun-16 11:00N 63°31' E 009°54'613.0
2018-Jun-16 10:30N 63°29' E 010°08'815.1
2018-Jun-16 10:00N 63°31' E 010°24'4 8.1
2018-Jun-16 09:30N 63°31' E 010°15'713.7
2018-Jun-16 09:00N 63°28' E 010°00'610.9
2018-Jun-16 08:28N 63°33' E 009°53'1 1.9
2018-Jun-16 07:59N 63°34' E 009°54'0 0.0
2018-Jun-16 07:29N 63°34' E 009°54'0 0.0
2018-Jun-16 06:59N 63°34' E 009°54'0 0.0
2018-Jun-16 06:26N 63°34' E 009°54'0 0.0
2018-Jun-16 05:59N 63°34' E 009°54'0 0.0
2018-Jun-16 05:29N 63°34' E 009°54'0 0.0
2018-Jun-16 04:59N 63°34' E 009°54'0 0.0
2018-Jun-16 04:29N 63°34' E 009°54'0 0.0
2018-Jun-16 03:59N 63°34' E 009°54'0 0.0
2018-Jun-16 03:29N 63°34' E 009°54'0 0.0
2018-Jun-16 02:59N 63°34' E 009°54'0 0.0
2018-Jun-16 02:29N 63°34' E 009°54'0 0.0
2018-Jun-16 01:59N 63°34' E 009°54'0 0.0
2018-Jun-16 01:29N 63°34' E 009°54'0 0.0
2018-Jun-16 00:59N 63°34' E 009°54'0 0.0
2018-Jun-16 00:29N 63°34' E 009°54'0 0.0
2018-Jun-15 23:59N 63°34' E 009°54'0 0.0
2018-Jun-15 23:29N 63°34' E 009°54'0 0.0
2018-Jun-15 22:59N 63°34' E 009°54'0 0.0
2018-Jun-15 22:29N 63°34' E 009°54'0 0.0
2018-Jun-15 21:59N 63°34' E 009°54'0 0.0
2018-Jun-15 21:29N 63°34' E 009°54'0 0.0
2018-Jun-15 20:59N 63°34' E 009°54'0 0.0
2018-Jun-15 20:29N 63°34' E 009°54'0 0.0
2018-Jun-15 19:59N 63°34' E 009°54'0 0.0
2018-Jun-15 19:29N 63°34' E 009°54'0 0.0
2018-Jun-15 18:59N 63°34' E 009°54'0 0.0
2018-Jun-15 18:29N 63°34' E 009°54'0 0.0
2018-Jun-15 17:59N 63°34' E 009°54'0 0.0
2018-Jun-15 17:29N 63°34' E 009°54'0 0.0
2018-Jun-15 16:59N 63°34' E 009°54'0 0.0
2018-Jun-15 16:29N 63°34' E 009°54'0 0.0
2018-Jun-15 15:59N 63°34' E 009°54'0 0.0
2018-Jun-15 15:29N 63°34' E 009°54'0 0.0
2018-Jun-15 14:59N 63°34' E 009°54'0 0.0
2018-Jun-15 14:29N 63°34' E 009°54'0 0.0
2018-Jun-15 13:59N 63°34' E 009°54'0 0.0
2018-Jun-15 13:29N 63°34' E 009°54'0 0.0
2018-Jun-15 12:59N 63°34' E 009°54'0 0.0
2018-Jun-15 12:29N 63°34' E 009°54'0 0.0
2018-Jun-15 11:59N 63°34' E 009°54'0 0.1
2018-Jun-15 11:29N 63°34' E 009°54'0 0.1
2018-Jun-15 10:59N 63°34' E 009°54'0 0.1
2018-Jun-15 10:29N 63°34' E 009°54'0 0.0
2018-Jun-15 09:59N 63°34' E 009°54'0 0.0
2018-Jun-15 09:29N 63°34' E 009°54'0 0.0
2018-Jun-15 08:59N 63°34' E 009°54'0 0.0
2018-Jun-15 08:29N 63°34' E 009°54'0 0.0
2018-Jun-15 07:59N 63°34' E 009°54'0 0.0
2018-Jun-15 07:29N 63°34' E 009°54'0 0.0
2018-Jun-15 06:59N 63°34' E 009°54'0 0.0
2018-Jun-15 06:29N 63°34' E 009°54'0 0.0
2018-Jun-15 05:59N 63°34' E 009°54'0 0.0
2018-Jun-15 05:29N 63°34' E 009°54'0 0.0
2018-Jun-15 04:59N 63°34' E 009°54'0 0.0
2018-Jun-15 04:29N 63°34' E 009°54'0 0.0
2018-Jun-15 03:59N 63°34' E 009°54'0 0.0
2018-Jun-15 03:29N 63°34' E 009°54'0 0.0
2018-Jun-15 02:59N 63°34' E 009°54'0 0.0
2018-Jun-15 02:29N 63°34' E 009°54'0 0.0
2018-Jun-15 01:59N 63°34' E 009°54'0 0.0
2018-Jun-15 01:29N 63°34' E 009°54'0 0.0
2018-Jun-15 00:59N 63°34' E 009°54'0 0.0
2018-Jun-15 00:29N 63°34' E 009°54'0 0.0
2018-Jun-14 23:59N 63°34' E 009°54'0 0.0
2018-Jun-14 23:29N 63°34' E 009°54'0 0.0
2018-Jun-14 22:59N 63°34' E 009°54'0 0.0
2018-Jun-14 22:29N 63°34' E 009°54'0 0.0
2018-Jun-14 21:59N 63°34' E 009°54'0 0.0
2018-Jun-14 21:29N 63°34' E 009°54'0 0.0
2018-Jun-14 20:59N 63°34' E 009°54'0 0.0
2018-Jun-14 20:29N 63°34' E 009°54'0 0.0
2018-Jun-14 19:59N 63°34' E 009°54'0 0.0
2018-Jun-14 19:29N 63°34' E 009°54'0 0.0
2018-Jun-14 18:59N 63°34' E 009°54'0 0.0
2018-Jun-14 18:29N 63°34' E 009°54'0 0.0
2018-Jun-14 17:59N 63°34' E 009°54'0 0.0
2018-Jun-14 17:29N 63°34' E 009°54'0 0.0
2018-Jun-14 16:59N 63°34' E 009°54'0 0.0
2018-Jun-14 16:29N 63°34' E 009°54'0 0.0
2018-Jun-14 15:59N 63°34' E 009°54'0 0.0
2018-Jun-14 15:29N 63°34' E 009°54'0 0.0
2018-Jun-14 14:59N 63°34' E 009°54'0 0.0
2018-Jun-14 14:29N 63°34' E 009°54'0 0.0
2018-Jun-14 13:59N 63°34' E 009°54'0 0.0
2018-Jun-14 13:29N 63°34' E 009°54'0 0.0
2018-Jun-14 12:59N 63°34' E 009°54'0 0.0
2018-Jun-14 12:29N 63°34' E 009°54'0 0.0
2018-Jun-14 11:59N 63°34' E 009°54'0 0.0
2018-Jun-14 11:29N 63°34' E 009°54'0 0.0
2018-Jun-14 10:59N 63°34' E 009°54'0 0.0
2018-Jun-14 10:29N 63°34' E 009°54'0 0.0
2018-Jun-14 09:59N 63°34' E 009°54'0 0.0
2018-Jun-14 09:29N 63°34' E 009°54'0 0.0
2018-Jun-14 08:59N 63°34' E 009°54'0 0.0
2018-Jun-14 08:29N 63°34' E 009°54'0 0.0
2018-Jun-14 07:59N 63°34' E 009°54'0 0.0
2018-Jun-14 07:29N 63°34' E 009°54'0 0.0
2018-Jun-14 06:59N 63°34' E 009°54'0 0.0
2018-Jun-14 06:29N 63°34' E 009°54'0 0.0
2018-Jun-14 05:59N 63°34' E 009°54'0 0.0
2018-Jun-14 05:29N 63°34' E 009°54'0 0.0
2018-Jun-14 04:59N 63°34' E 009°54'0 0.0
2018-Jun-14 04:29N 63°34' E 009°54'0 0.0
2018-Jun-14 03:59N 63°34' E 009°54'0 0.0
2018-Jun-14 03:29N 63°34' E 009°54'0 0.0
2018-Jun-14 02:59N 63°34' E 009°54'0 0.0
2018-Jun-14 02:29N 63°34' E 009°54'0 0.0
2018-Jun-14 01:59N 63°34' E 009°54'0 0.0
2018-Jun-14 01:29N 63°34' E 009°54'0 0.0
2018-Jun-14 00:59N 63°34' E 009°54'0 0.0
2018-Jun-14 00:29N 63°34' E 009°54'0 0.0
2018-Jun-13 23:59N 63°34' E 009°54'0 0.0
2018-Jun-13 23:29N 63°34' E 009°54'0 0.0
2018-Jun-13 22:59N 63°34' E 009°54'0 0.0
2018-Jun-13 22:29N 63°34' E 009°54'0 0.0
2018-Jun-13 21:59N 63°34' E 009°54'0 0.0
2018-Jun-13 21:29N 63°34' E 009°54'0 0.0
2018-Jun-13 20:59N 63°34' E 009°54'0 0.0
2018-Jun-13 20:26N 63°34' E 009°54'0 0.0
2018-Jun-13 19:59N 63°34' E 009°54'0 0.0
2018-Jun-13 19:29N 63°34' E 009°54'0 0.0
2018-Jun-13 18:59N 63°34' E 009°54'0 0.0
2018-Jun-13 18:26N 63°34' E 009°54'0 0.0
2018-Jun-13 17:59N 63°34' E 009°54'0 0.0
2018-Jun-13 17:29N 63°34' E 009°54'0 0.0
2018-Jun-13 16:59N 63°34' E 009°54'0 0.0
2018-Jun-13 16:29N 63°34' E 009°54'0 0.0
2018-Jun-13 15:59N 63°34' E 009°54'0 0.0
2018-Jun-13 15:29N 63°34' E 009°54'0 0.0
2018-Jun-13 14:59N 63°34' E 009°54'0 0.0
2018-Jun-13 14:29N 63°34' E 009°54'0 0.0
2018-Jun-13 13:59N 63°34' E 009°54'0 0.0
2018-Jun-13 13:29N 63°34' E 009°54'0 0.0
2018-Jun-13 12:59N 63°34' E 009°54'0 0.0
2018-Jun-13 12:29N 63°34' E 009°54'0 0.0
2018-Jun-13 11:59N 63°34' E 009°54'0 0.0
2018-Jun-13 11:29N 63°34' E 009°54'0 0.0
2018-Jun-13 10:59N 63°34' E 009°54'0 0.0
2018-Jun-13 10:29N 63°34' E 009°54'0 0.0
2018-Jun-13 09:59N 63°34' E 009°54'0 0.0
2018-Jun-13 09:29N 63°34' E 009°54'0 0.0
2018-Jun-13 08:59N 63°34' E 009°54'0 0.0
2018-Jun-13 08:29N 63°34' E 009°54'0 0.0
2018-Jun-13 07:59N 63°34' E 009°54'0 0.0
2018-Jun-13 07:29N 63°34' E 009°54'0 0.0
2018-Jun-13 06:59N 63°34' E 009°54'0 0.0
2018-Jun-13 06:29N 63°34' E 009°54'0 0.0
2018-Jun-13 05:59N 63°34' E 009°54'0 0.0
2018-Jun-13 05:29N 63°34' E 009°54'0 0.0
2018-Jun-13 04:59N 63°34' E 009°54'0 0.0
2018-Jun-13 04:29N 63°34' E 009°54'0 0.0
2018-Jun-13 03:59N 63°34' E 009°54'0 0.0
2018-Jun-13 03:26N 63°34' E 009°54'0 0.0
2018-Jun-13 02:59N 63°34' E 009°54'0 0.0
2018-Jun-13 02:29N 63°34' E 009°54'0 0.0
2018-Jun-13 01:59N 63°34' E 009°54'0 0.0
2018-Jun-13 01:29N 63°34' E 009°54'0 0.0
2018-Jun-13 00:59N 63°34' E 009°54'0 0.0
2018-Jun-13 00:29N 63°34' E 009°54'0 0.0
2018-Jun-12 23:59N 63°34' E 009°54'0 0.0
2018-Jun-12 23:29N 63°34' E 009°54'0 0.0
2018-Jun-12 22:59N 63°34' E 009°54'0 0.0
2018-Jun-12 22:29N 63°34' E 009°54'0 0.0
2018-Jun-12 21:59N 63°34' E 009°54'0 0.0
2018-Jun-12 21:29N 63°34' E 009°54'0 0.0
2018-Jun-12 20:59N 63°34' E 009°54'0 0.0
2018-Jun-12 20:29N 63°34' E 009°54'0 0.0
2018-Jun-12 19:59N 63°34' E 009°54'0 0.0
2018-Jun-12 19:29N 63°34' E 009°54'0 0.0
2018-Jun-12 18:59N 63°34' E 009°54'0 0.0
2018-Jun-12 18:29N 63°34' E 009°54'0 0.0
2018-Jun-12 17:59N 63°34' E 009°54'0 0.0
2018-Jun-12 17:29N 63°34' E 009°54'0 0.0
2018-Jun-12 16:59N 63°34' E 009°54'0 0.0
2018-Jun-12 16:29N 63°34' E 009°54'0 0.0
2018-Jun-12 15:59N 63°34' E 009°54'0 0.0
2018-Jun-12 15:29N 63°34' E 009°54'0 0.0
2018-Jun-12 14:59N 63°34' E 009°54'0 0.0
2018-Jun-12 14:29N 63°34' E 009°54'0 0.0
2018-Jun-12 13:59N 63°34' E 009°54'0 0.0
2018-Jun-12 13:29N 63°34' E 009°54'0 0.0
2018-Jun-12 12:59N 63°34' E 009°54'0 0.0
2018-Jun-12 12:29N 63°34' E 009°54'0 0.0
2018-Jun-12 11:59N 63°34' E 009°54'0 0.0
2018-Jun-12 11:29N 63°34' E 009°54'0 0.0
2018-Jun-12 10:59N 63°34' E 009°54'0 0.0
2018-Jun-12 10:29N 63°34' E 009°54'0 0.0
2018-Jun-12 09:59N 63°34' E 009°54'0 0.0
2018-Jun-12 09:29N 63°34' E 009°54'0 0.0
2018-Jun-12 08:59N 63°34' E 009°54'0 0.0
2018-Jun-12 08:29N 63°34' E 009°54'0 0.0
2018-Jun-12 07:59N 63°34' E 009°54'0 0.0
2018-Jun-12 07:29N 63°34' E 009°54'0 0.0
2018-Jun-12 06:59N 63°34' E 009°54'0 0.0
2018-Jun-12 06:29N 63°34' E 009°54'0 0.0
2018-Jun-12 05:59N 63°34' E 009°54'0 0.0
2018-Jun-12 05:29N 63°34' E 009°54'0 0.0
2018-Jun-12 04:59N 63°34' E 009°54'0 0.0
2018-Jun-12 04:29N 63°34' E 009°54'0 0.0
2018-Jun-12 03:59N 63°34' E 009°54'0 0.0
2018-Jun-12 03:29N 63°34' E 009°54'0 0.0
2018-Jun-12 02:59N 63°34' E 009°54'0 0.0
2018-Jun-12 02:29N 63°34' E 009°54'0 0.0
2018-Jun-12 01:59N 63°34' E 009°54'0 0.0
2018-Jun-12 01:29N 63°34' E 009°54'0 0.0
2018-Jun-12 00:59N 63°34' E 009°54'0 0.0
2018-Jun-12 00:29N 63°34' E 009°54'0 0.0
2018-Jun-11 23:59N 63°34' E 009°54'0 0.0
2018-Jun-11 23:29N 63°34' E 009°54'0 0.0
2018-Jun-11 22:59N 63°34' E 009°54'0 0.0
2018-Jun-11 22:29N 63°34' E 009°54'0 0.0
2018-Jun-11 21:59N 63°34' E 009°54'0 0.0
2018-Jun-11 21:29N 63°34' E 009°54'0 0.0
2018-Jun-11 20:59N 63°34' E 009°54'0 0.0
2018-Jun-11 20:29N 63°34' E 009°54'0 0.0
2018-Jun-11 19:59N 63°34' E 009°54'0 0.0
2018-Jun-11 19:29N 63°34' E 009°54'0 0.0
2018-Jun-11 18:59N 63°34' E 009°54'0 0.0
2018-Jun-11 18:29N 63°34' E 009°54'0 0.0
2018-Jun-11 17:59N 63°34' E 009°54'0 0.0
2018-Jun-11 17:29N 63°34' E 009°54'0 0.0
2018-Jun-11 16:59N 63°34' E 009°54'0 0.0
2018-Jun-11 16:29N 63°34' E 009°54'0 0.0
2018-Jun-11 15:59N 63°34' E 009°54'0 0.0
2018-Jun-11 15:29N 63°34' E 009°54'0 0.0
2018-Jun-11 14:59N 63°34' E 009°54'0 0.0
2018-Jun-11 14:29N 63°34' E 009°54'0 0.0
2018-Jun-11 13:59N 63°34' E 009°54'0 0.0
2018-Jun-11 13:29N 63°34' E 009°54'0 0.0
2018-Jun-11 12:59N 63°34' E 009°54'0 0.0
2018-Jun-11 12:29N 63°34' E 009°54'0 0.0
2018-Jun-11 11:59N 63°34' E 009°54'0 0.0
2018-Jun-11 11:29N 63°34' E 009°54'0 0.0
2018-Jun-11 10:59N 63°34' E 009°54'0 0.0
2018-Jun-11 10:29N 63°34' E 009°54'0 0.0
2018-Jun-11 09:59N 63°34' E 009°54'0 0.0
2018-Jun-11 09:29N 63°34' E 009°54'0 0.1
2018-Jun-11 08:59N 63°34' E 009°54'  
Track history (hours):
 
Tides and Currents Weather Stations Pressure Air Temp Water Temp Dewpoint Dewpoint Depression Visibility Wind Speed Wind Dir Waves Ship Positions

Nordkinn

Last reported at 2018-Jun-21 08:30 UTC. Time now 2018-Jun-21 08:45 UTC.
Position N 63°34' E 009°20'.

Length 80 m; draft 5.2 m.

Type: Cargo ship. MMSI: 231711000.

Date/timePositionNaut miles runAvg speedWind from/ knotsBaromVisibWave heightAir tempDewpointWater temp
2018-Jun-21 08:30N 63°34' E 009°20'612.6
2018-Jun-21 08:00N 63°39' E 009°29'713.3
2018-Jun-21 07:29N 63°46' E 009°32'713.4
2018-Jun-21 06:59N 63°51' E 009°40'612.8
2018-Jun-21 06:30N 63°57' E 009°47'712.8
2018-Jun-21 05:59N 64°03' E 009°50'713.7
2018-Jun-21 05:30N 64°07' E 010°02'713.3
2018-Jun-21 05:00N 64°12' E 010°12'611.7
2018-Jun-21 04:30N 64°17' E 010°20'713.3
2018-Jun-21 04:01N 64°23' E 010°25'612.4
2018-Jun-21 03:30N 64°29' E 010°28'612.1
2018-Jun-21 03:00N 64°34' E 010°38'4 8.3
2018-Jun-21 02:30N 64°33' E 010°48'0 0.4
2018-Jun-21 02:00N 64°33' E 010°48'5 9.4
2018-Jun-21 01:30N 64°37' E 010°46'613.0
2018-Jun-21 01:00N 64°43' E 010°54'714.0
2018-Jun-21 00:31N 64°47' E 011°05'713.2
2018-Jun-21 00:00N 64°52' E 011°17'1 2.2
2018-Jun-20 23:30N 64°53' E 011°18'0 0.0
2018-Jun-20 23:00N 64°53' E 011°18'2 3.5
2018-Jun-20 22:30N 64°54' E 011°21'713.5
2018-Jun-20 22:00N 64°58' E 011°34'713.3
2018-Jun-20 21:30N 65°03' E 011°44'713.4
2018-Jun-20 21:00N 65°09' E 011°50'713.6
2018-Jun-20 20:30N 65°16' E 011°56'713.0
2018-Jun-20 19:59N 65°22' E 012°03'611.4
2018-Jun-20 19:27N 65°28' E 011°57'612.6
2018-Jun-20 18:59N 65°33' E 012°03'612.6
2018-Jun-20 18:30N 65°37' E 012°13'5 7.8
2018-Jun-20 17:55N 65°41' E 012°20'0 0.2
2018-Jun-20 17:30N 65°41' E 012°20'0 0.0
2018-Jun-20 17:00N 65°41' E 012°20'0 0.1
2018-Jun-20 16:29N 65°41' E 012°20'0 0.1
2018-Jun-20 16:00N 65°41' E 012°20'1 1.3
2018-Jun-20 15:29N 65°41' E 012°18'1 1.1
2018-Jun-20 14:58N 65°41' E 012°17'1 1.4
2018-Jun-20 14:30N 65°41' E 012°18'1 2.2
2018-Jun-20 14:00N 65°42' E 012°17'3 5.3
2018-Jun-20 13:30N 65°45' E 012°18'611.1
2018-Jun-20 13:00N 65°50' E 012°22'510.4
2018-Jun-20 12:29N 65°55' E 012°23'510.1
2018-Jun-20 12:00N 65°59' E 012°30'510.0
2018-Jun-20 11:28N 66°04' E 012°38'5 9.7
2018-Jun-20 11:00N 66°07' E 012°45'5 9.8
2018-Jun-20 10:30N 66°09' E 012°56'510.7
2018-Jun-20 10:00N 66°11' E 013°09'510.7
2018-Jun-20 09:30N 66°14' E 013°19'5 9.3
2018-Jun-20 08:59N 66°15' E 013°31'5 9.5
2018-Jun-20 08:30N 66°15' E 013°42'5 8.9
2018-Jun-20 08:00N 66°16' E 013°53'4 8.9
2018-Jun-20 07:30N 66°18' E 014°03'2 4.0
2018-Jun-20 06:59N 66°19' E 014°07'0 0.0
2018-Jun-20 06:30N 66°19' E 014°07'0 0.0
2018-Jun-20 06:00N 66°19' E 014°07'0 0.0
2018-Jun-20 05:30N 66°19' E 014°07'0 0.0
2018-Jun-20 04:58N 66°19' E 014°07'0 0.0
2018-Jun-20 04:30N 66°19' E 014°07'0 0.0
2018-Jun-20 03:59N 66°19' E 014°07'0 0.0
2018-Jun-20 03:30N 66°19' E 014°07'0 0.0
2018-Jun-20 03:00N 66°19' E 014°07'0 0.0
2018-Jun-20 02:30N 66°19' E 014°07'0 0.0
2018-Jun-20 02:00N 66°19' E 014°07'0 0.0
2018-Jun-20 01:30N 66°19' E 014°07'0 0.0
2018-Jun-20 00:59N 66°19' E 014°07'0 0.0
2018-Jun-20 00:30N 66°19' E 014°07'0 0.0
2018-Jun-20 00:00N 66°19' E 014°07'0 0.0
2018-Jun-19 23:30N 66°19' E 014°07'0 0.0
2018-Jun-19 23:00N 66°19' E 014°07'0 0.0
2018-Jun-19 22:29N 66°19' E 014°07'0 0.0
2018-Jun-19 22:00N 66°19' E 014°07'0 0.0
2018-Jun-19 21:30N 66°19' E 014°07'0 0.0
2018-Jun-19 21:00N 66°19' E 014°07'2 3.9
2018-Jun-19 20:30N 66°18' E 014°03'612.7
2018-Jun-19 20:00N 66°15' E 013°49'612.0
2018-Jun-19 19:30N 66°15' E 013°34'611.7
2018-Jun-19 19:00N 66°14' E 013°20'612.7
2018-Jun-19 18:30N 66°11' E 013°07'713.4
2018-Jun-19 18:00N 66°08' E 012°51'714.1
2018-Jun-19 17:30N 66°04' E 012°38'714.2
2018-Jun-19 16:59N 65°58' E 012°27'713.8
2018-Jun-19 16:30N 65°51' E 012°22'713.6
2018-Jun-19 16:00N 65°45' E 012°18'4 8.2
2018-Jun-19 15:30N 65°41' E 012°20'0 0.3
2018-Jun-19 15:00N 65°41' E 012°20'0 0.1
2018-Jun-19 14:30N 65°41' E 012°20'0 0.1
2018-Jun-19 14:00N 65°41' E 012°20'0 0.1
2018-Jun-19 13:30N 65°41' E 012°20'1 2.6
2018-Jun-19 12:57N 65°42' E 012°17'511.8
2018-Jun-19 12:29N 65°47' E 012°20'612.0
2018-Jun-19 12:00N 65°53' E 012°22'611.4
2018-Jun-19 11:29N 65°58' E 012°28'711.9
2018-Jun-19 10:56N 66°04' E 012°38'511.9
2018-Jun-19 10:30N 66°07' E 012°47'612.8
2018-Jun-19 10:00N 66°10' E 013°02'713.4
2018-Jun-19 09:30N 66°13' E 013°16'612.2
2018-Jun-19 09:00N 66°15' E 013°30'612.7
2018-Jun-19 08:30N 66°15' E 013°46'612.1
2018-Jun-19 08:00N 66°18' E 014°00'3 6.6
2018-Jun-19 07:30N 66°19' E 014°07'0 0.0
2018-Jun-19 07:00N 66°19' E 014°07'0 0.0
2018-Jun-19 06:30N 66°19' E 014°07'0 0.0
2018-Jun-19 06:00N 66°19' E 014°07'0 0.0
2018-Jun-19 05:30N 66°19' E 014°07'1 1.0
2018-Jun-19 04:59N 66°19' E 014°06'612.3
2018-Jun-19 04:30N 66°16' E 013°54'612.4
2018-Jun-19 04:00N 66°14' E 013°39'611.4
2018-Jun-19 03:30N 66°14' E 013°25'510.8
2018-Jun-19 03:00N 66°12' E 013°13'612.3
2018-Jun-19 02:30N 66°09' E 012°58'713.0
2018-Jun-19 01:59N 66°06' E 012°44'713.6
2018-Jun-19 01:30N 66°01' E 012°33'713.7
2018-Jun-19 01:00N 65°56' E 012°24'713.8
2018-Jun-19 00:30N 65°49' E 012°21'713.6
2018-Jun-19 00:00N 65°42' E 012°16'713.6
2018-Jun-18 23:30N 65°36' E 012°11'713.7
2018-Jun-18 23:00N 65°30' E 012°01'611.9
2018-Jun-18 22:30N 65°25' E 011°58'510.6
2018-Jun-18 22:00N 65°20' E 012°01'713.3
2018-Jun-18 21:30N 65°14' E 011°54'713.2
2018-Jun-18 21:00N 65°07' E 011°49'613.0
2018-Jun-18 20:31N 65°02' E 011°41'713.2
2018-Jun-18 20:00N 64°59' E 011°26'713.4
2018-Jun-18 19:31N 64°53' E 011°19'2 4.3
2018-Jun-18 19:01N 64°52' E 011°17'1 2.2
2018-Jun-18 18:31N 64°52' E 011°15'0 0.1
2018-Jun-18 18:01N 64°52' E 011°15'0 0.0
2018-Jun-18 17:31N 64°52' E 011°15'0 0.0
2018-Jun-18 17:01N 64°52' E 011°15'0 0.1
2018-Jun-18 16:31N 64°52' E 011°15'4 7.3
2018-Jun-18 16:00N 64°49' E 011°09'714.1
2018-Jun-18 15:30N 64°44' E 010°57'714.3
2018-Jun-18 15:00N 64°39' E 010°46'714.1
2018-Jun-18 14:30N 64°33' E 010°36'713.6
2018-Jun-18 14:00N 64°27' E 010°28'713.6
2018-Jun-18 13:30N 64°21' E 010°22'613.0
2018-Jun-18 13:00N 64°15' E 010°17'713.5
2018-Jun-18 12:30N 64°10' E 010°07'713.3
2018-Jun-18 11:59N 64°05' E 009°56'612.9
2018-Jun-18 11:30N 63°60' E 009°47'713.4
2018-Jun-18 11:00N 63°53' E 009°45'713.8
2018-Jun-18 10:30N 63°48' E 009°35'713.3
2018-Jun-18 10:00N 63°42' E 009°30'4 8.2
2018-Jun-18 09:30N 63°38' E 009°35'611.3
2018-Jun-18 09:00N 63°37' E 009°48'714.2
2018-Jun-18 08:29N 63°31' E 009°54'612.7
2018-Jun-18 08:00N 63°29' E 010°08'713.9
2018-Jun-18 07:31N 63°28' E 010°23'2 3.9
2018-Jun-18 07:00N 63°27' E 010°25'0 0.4
2018-Jun-18 06:30N 63°27' E 010°25'5 9.4
2018-Jun-18 06:00N 63°28' E 010°15'714.1
2018-Jun-18 05:30N 63°29' E 009°59'611.9
2018-Jun-18 05:00N 63°34' E 009°53'0 0.7
2018-Jun-18 04:29N 63°34' E 009°54'0 0.0
2018-Jun-18 04:00N 63°34' E 009°54'0 0.0
2018-Jun-18 03:30N 63°34' E 009°54'0 0.0
2018-Jun-18 03:00N 63°34' E 009°54'0 0.0
2018-Jun-18 02:30N 63°34' E 009°54'0 0.0
2018-Jun-18 02:00N 63°34' E 009°54'0 0.0
2018-Jun-18 01:30N 63°34' E 009°54'0 0.0
2018-Jun-18 01:00N 63°34' E 009°54'0 0.0
2018-Jun-18 00:29N 63°34' E 009°54'0 0.0
2018-Jun-18 00:00N 63°34' E 009°54'0 0.0
2018-Jun-17 23:29N 63°34' E 009°54'0 0.0
2018-Jun-17 23:00N 63°34' E 009°54'0 0.0
2018-Jun-17 22:30N 63°34' E 009°54'0 0.0
2018-Jun-17 22:00N 63°34' E 009°54'0 0.0
2018-Jun-17 21:30N 63°34' E 009°54'0 0.0
2018-Jun-17 21:00N 63°34' E 009°54'0 0.0
2018-Jun-17 20:30N 63°34' E 009°54'0 0.0
2018-Jun-17 20:00N 63°34' E 009°54'0 0.0
2018-Jun-17 19:30N 63°34' E 009°54'0 0.0
2018-Jun-17 19:00N 63°34' E 009°54'0 0.0
2018-Jun-17 18:29N 63°34' E 009°54'0 0.0
2018-Jun-17 18:00N 63°34' E 009°54'0 0.0
2018-Jun-17 17:30N 63°34' E 009°54'0 0.0
2018-Jun-17 17:00N 63°34' E 009°54'0 0.0
2018-Jun-17 16:30N 63°34' E 009°54'1 2.2
2018-Jun-17 15:59N 63°33' E 009°53'1 1.6
2018-Jun-17 15:29N 63°32' E 009°53'2 3.7
2018-Jun-17 15:00N 63°34' E 009°52'1 1.8
2018-Jun-17 14:30N 63°33' E 009°52'1 1.2
2018-Jun-17 14:00N 63°33' E 009°53'3 7.1
2018-Jun-17 13:30N 63°29' E 009°55'1 2.1
2018-Jun-17 13:00N 63°28' E 009°57'612.5
2018-Jun-17 12:31N 63°30' E 010°11'816.6
2018-Jun-17 12:00N 63°34' E 010°26'5 9.9
2018-Jun-17 11:31N 63°31' E 010°19'815.9
2018-Jun-17 11:01N 63°28' E 010°02'612.5
2018-Jun-17 10:30N 63°33' E 009°52'1 1.9
2018-Jun-17 10:00N 63°34' E 009°54'0 0.0
2018-Jun-17 09:29N 63°34' E 009°54'0 0.0
2018-Jun-17 09:00N 63°34' E 009°54'0 0.0
2018-Jun-17 08:30N 63°34' E 009°54'0 0.0
2018-Jun-17 07:59N 63°34' E 009°54'0 0.0
2018-Jun-17 07:28N 63°34' E 009°54'0 0.0
2018-Jun-17 07:00N 63°34' E 009°54'0 0.0
2018-Jun-17 06:30N 63°34' E 009°54'0 0.0
2018-Jun-17 06:00N 63°34' E 009°54'0 0.0
2018-Jun-17 05:30N 63°34' E 009°54'0 0.0
2018-Jun-17 05:00N 63°34' E 009°54'0 0.0
2018-Jun-17 04:30N 63°34' E 009°54'0 0.0
2018-Jun-17 04:00N 63°34' E 009°54'0 0.0
2018-Jun-17 03:30N 63°34' E 009°54'0 0.0
2018-Jun-17 03:00N 63°34' E 009°54'0 0.0
2018-Jun-17 02:30N 63°34' E 009°54'0 0.0
2018-Jun-17 02:00N 63°34' E 009°54'0 0.0
2018-Jun-17 01:30N 63°34' E 009°54'0 0.0
2018-Jun-17 01:00N 63°34' E 009°54'0 0.0
2018-Jun-17 00:30N 63°34' E 009°54'0 0.0
2018-Jun-17 00:00N 63°34' E 009°54'0 0.0
2018-Jun-16 23:30N 63°34' E 009°54'0 0.0
2018-Jun-16 22:58N 63°34' E 009°54'0 0.0
2018-Jun-16 22:30N 63°34' E 009°54'0 0.0
2018-Jun-16 22:00N 63°34' E 009°54'0 0.0
2018-Jun-16 21:30N 63°34' E 009°54'0 0.0
2018-Jun-16 21:00N 63°34' E 009°54'0 0.0
2018-Jun-16 20:31N 63°34' E 009°54'0 0.0
2018-Jun-16 19:59N 63°34' E 009°54'0 0.0
2018-Jun-16 19:30N 63°34' E 009°54'0 0.0
2018-Jun-16 18:59N 63°34' E 009°54'0 0.0
2018-Jun-16 18:31N 63°34' E 009°54'0 0.0
2018-Jun-16 17:59N 63°34' E 009°54'0 0.0
2018-Jun-16 17:30N 63°34' E 009°54'0 0.0
2018-Jun-16 17:00N 63°34' E 009°54'0 0.0
2018-Jun-16 16:30N 63°34' E 009°54'0 0.1
2018-Jun-16 16:00N 63°34' E 009°54'3 5.5
2018-Jun-16 15:30N 63°31' E 009°53'713.7
2018-Jun-16 15:00N 63°29' E 010°08'816.1
2018-Jun-16 14:31N 63°33' E 010°24'510.1
2018-Jun-16 14:00N 63°35' E 010°34'815.5
2018-Jun-16 13:29N 63°30' E 010°20'815.4
2018-Jun-16 12:59N 63°28' E 010°03'713.4
2018-Jun-16 12:30N 63°32' E 009°52'1 2.2
2018-Jun-16 11:59N 63°33' E 009°51'1 2.3
2018-Jun-16 11:31N 63°33' E 009°53'3 5.2
2018-Jun-16 11:00N 63°31' E 009°54'613.0
2018-Jun-16 10:30N 63°29' E 010°08'815.1
2018-Jun-16 10:00N 63°31' E 010°24'4 8.1
2018-Jun-16 09:30N 63°31' E 010°15'713.7
2018-Jun-16 09:00N 63°28' E 010°00'610.9
2018-Jun-16 08:28N 63°33' E 009°53'1 1.9
2018-Jun-16 07:59N 63°34' E 009°54'0 0.0
2018-Jun-16 07:29N 63°34' E 009°54'0 0.0
2018-Jun-16 06:59N 63°34' E 009°54'0 0.0
2018-Jun-16 06:26N 63°34' E 009°54'0 0.0
2018-Jun-16 05:59N 63°34' E 009°54'0 0.0
2018-Jun-16 05:29N 63°34' E 009°54'0 0.0
2018-Jun-16 04:59N 63°34' E 009°54'0 0.0
2018-Jun-16 04:29N 63°34' E 009°54'0 0.0
2018-Jun-16 03:59N 63°34' E 009°54'0 0.0
2018-Jun-16 03:29N 63°34' E 009°54'0 0.0
2018-Jun-16 02:59N 63°34' E 009°54'0 0.0
2018-Jun-16 02:29N 63°34' E 009°54'0 0.0
2018-Jun-16 01:59N 63°34' E 009°54'0 0.0
2018-Jun-16 01:29N 63°34' E 009°54'0 0.0
2018-Jun-16 00:59N 63°34' E 009°54'0 0.0
2018-Jun-16 00:29N 63°34' E 009°54'0 0.0
2018-Jun-15 23:59N 63°34' E 009°54'0 0.0
2018-Jun-15 23:29N 63°34' E 009°54'0 0.0
2018-Jun-15 22:59N 63°34' E 009°54'0 0.0
2018-Jun-15 22:29N 63°34' E 009°54'0 0.0
2018-Jun-15 21:59N 63°34' E 009°54'0 0.0
2018-Jun-15 21:29N 63°34' E 009°54'0 0.0
2018-Jun-15 20:59N 63°34' E 009°54'0 0.0
2018-Jun-15 20:29N 63°34' E 009°54'0 0.0
2018-Jun-15 19:59N 63°34' E 009°54'0 0.0
2018-Jun-15 19:29N 63°34' E 009°54'0 0.0
2018-Jun-15 18:59N 63°34' E 009°54'0 0.0
2018-Jun-15 18:29N 63°34' E 009°54'0 0.0
2018-Jun-15 17:59N 63°34' E 009°54'0 0.0
2018-Jun-15 17:29N 63°34' E 009°54'0 0.0
2018-Jun-15 16:59N 63°34' E 009°54'0 0.0
2018-Jun-15 16:29N 63°34' E 009°54'0 0.0
2018-Jun-15 15:59N 63°34' E 009°54'0 0.0
2018-Jun-15 15:29N 63°34' E 009°54'0 0.0
2018-Jun-15 14:59N 63°34' E 009°54'0 0.0
2018-Jun-15 14:29N 63°34' E 009°54'0 0.0
2018-Jun-15 13:59N 63°34' E 009°54'0 0.0
2018-Jun-15 13:29N 63°34' E 009°54'0 0.0
2018-Jun-15 12:59N 63°34' E 009°54'0 0.0
2018-Jun-15 12:29N 63°34' E 009°54'0 0.0
2018-Jun-15 11:59N 63°34' E 009°54'0 0.1
2018-Jun-15 11:29N 63°34' E 009°54'0 0.1
2018-Jun-15 10:59N 63°34' E 009°54'0 0.1
2018-Jun-15 10:29N 63°34' E 009°54'0 0.0
2018-Jun-15 09:59N 63°34' E 009°54'0 0.0
2018-Jun-15 09:29N 63°34' E 009°54'0 0.0
2018-Jun-15 08:59N 63°34' E 009°54'0 0.0
2018-Jun-15 08:29N 63°34' E 009°54'0 0.0
2018-Jun-15 07:59N 63°34' E 009°54'0 0.0
2018-Jun-15 07:29N 63°34' E 009°54'0 0.0
2018-Jun-15 06:59N 63°34' E 009°54'0 0.0
2018-Jun-15 06:29N 63°34' E 009°54'0 0.0
2018-Jun-15 05:59N 63°34' E 009°54'0 0.0
2018-Jun-15 05:29N 63°34' E 009°54'0 0.0
2018-Jun-15 04:59N 63°34' E 009°54'0 0.0
2018-Jun-15 04:29N 63°34' E 009°54'0 0.0
2018-Jun-15 03:59N 63°34' E 009°54'0 0.0
2018-Jun-15 03:29N 63°34' E 009°54'0 0.0
2018-Jun-15 02:59N 63°34' E 009°54'0 0.0
2018-Jun-15 02:29N 63°34' E 009°54'0 0.0
2018-Jun-15 01:59N 63°34' E 009°54'0 0.0
2018-Jun-15 01:29N 63°34' E 009°54'0 0.0
2018-Jun-15 00:59N 63°34' E 009°54'0 0.0
2018-Jun-15 00:29N 63°34' E 009°54'0 0.0
2018-Jun-14 23:59N 63°34' E 009°54'0 0.0
2018-Jun-14 23:29N 63°34' E 009°54'0 0.0
2018-Jun-14 22:59N 63°34' E 009°54'0 0.0
2018-Jun-14 22:29N 63°34' E 009°54'0 0.0
2018-Jun-14 21:59N 63°34' E 009°54'0 0.0
2018-Jun-14 21:29N 63°34' E 009°54'0 0.0
2018-Jun-14 20:59N 63°34' E 009°54'0 0.0
2018-Jun-14 20:29N 63°34' E 009°54'0 0.0
2018-Jun-14 19:59N 63°34' E 009°54'0 0.0
2018-Jun-14 19:29N 63°34' E 009°54'0 0.0
2018-Jun-14 18:59N 63°34' E 009°54'0 0.0
2018-Jun-14 18:29N 63°34' E 009°54'0 0.0
2018-Jun-14 17:59N 63°34' E 009°54'0 0.0
2018-Jun-14 17:29N 63°34' E 009°54'0 0.0
2018-Jun-14 16:59N 63°34' E 009°54'0 0.0
2018-Jun-14 16:29N 63°34' E 009°54'0 0.0
2018-Jun-14 15:59N 63°34' E 009°54'0 0.0
2018-Jun-14 15:29N 63°34' E 009°54'0 0.0
2018-Jun-14 14:59N 63°34' E 009°54'0 0.0
2018-Jun-14 14:29N 63°34' E 009°54'0 0.0
2018-Jun-14 13:59N 63°34' E 009°54'0 0.0
2018-Jun-14 13:29N 63°34' E 009°54'0 0.0
2018-Jun-14 12:59N 63°34' E 009°54'0 0.0
2018-Jun-14 12:29N 63°34' E 009°54'0 0.0
2018-Jun-14 11:59N 63°34' E 009°54'0 0.0
2018-Jun-14 11:29N 63°34' E 009°54'0 0.0
2018-Jun-14 10:59N 63°34' E 009°54'0 0.0
2018-Jun-14 10:29N 63°34' E 009°54'0 0.0
2018-Jun-14 09:59N 63°34' E 009°54'0 0.0
2018-Jun-14 09:29N 63°34' E 009°54'0 0.0
2018-Jun-14 08:59N 63°34' E 009°54'0 0.0
2018-Jun-14 08:29N 63°34' E 009°54'0 0.0
2018-Jun-14 07:59N 63°34' E 009°54'0 0.0
2018-Jun-14 07:29N 63°34' E 009°54'0 0.0
2018-Jun-14 06:59N 63°34' E 009°54'0 0.0
2018-Jun-14 06:29N 63°34' E 009°54'0 0.0
2018-Jun-14 05:59N 63°34' E 009°54'0 0.0
2018-Jun-14 05:29N 63°34' E 009°54'0 0.0
2018-Jun-14 04:59N 63°34' E 009°54'0 0.0
2018-Jun-14 04:29N 63°34' E 009°54'0 0.0
2018-Jun-14 03:59N 63°34' E 009°54'0 0.0
2018-Jun-14 03:29N 63°34' E 009°54'0 0.0
2018-Jun-14 02:59N 63°34' E 009°54'0 0.0
2018-Jun-14 02:29N 63°34' E 009°54'0 0.0
2018-Jun-14 01:59N 63°34' E 009°54'0 0.0
2018-Jun-14 01:29N 63°34' E 009°54'0 0.0
2018-Jun-14 00:59N 63°34' E 009°54'0 0.0
2018-Jun-14 00:29N 63°34' E 009°54'0 0.0
2018-Jun-13 23:59N 63°34' E 009°54'0 0.0
2018-Jun-13 23:29N 63°34' E 009°54'0 0.0
2018-Jun-13 22:59N 63°34' E 009°54'0 0.0
2018-Jun-13 22:29N 63°34' E 009°54'0 0.0
2018-Jun-13 21:59N 63°34' E 009°54'0 0.0
2018-Jun-13 21:29N 63°34' E 009°54'0 0.0
2018-Jun-13 20:59N 63°34' E 009°54'0 0.0
2018-Jun-13 20:26N 63°34' E 009°54'0 0.0
2018-Jun-13 19:59N 63°34' E 009°54'0 0.0
2018-Jun-13 19:29N 63°34' E 009°54'0 0.0
2018-Jun-13 18:59N 63°34' E 009°54'0 0.0
2018-Jun-13 18:26N 63°34' E 009°54'0 0.0
2018-Jun-13 17:59N 63°34' E 009°54'0 0.0
2018-Jun-13 17:29N 63°34' E 009°54'0 0.0
2018-Jun-13 16:59N 63°34' E 009°54'0 0.0
2018-Jun-13 16:29N 63°34' E 009°54'0 0.0
2018-Jun-13 15:59N 63°34' E 009°54'0 0.0
2018-Jun-13 15:29N 63°34' E 009°54'0 0.0
2018-Jun-13 14:59N 63°34' E 009°54'0 0.0
2018-Jun-13 14:29N 63°34' E 009°54'0 0.0
2018-Jun-13 13:59N 63°34' E 009°54'0 0.0
2018-Jun-13 13:29N 63°34' E 009°54'0 0.0
2018-Jun-13 12:59N 63°34' E 009°54'0 0.0
2018-Jun-13 12:29N 63°34' E 009°54'0 0.0
2018-Jun-13 11:59N 63°34' E 009°54'0 0.0
2018-Jun-13 11:29N 63°34' E 009°54'0 0.0
2018-Jun-13 10:59N 63°34' E 009°54'0 0.0
2018-Jun-13 10:29N 63°34' E 009°54'0 0.0
2018-Jun-13 09:59N 63°34' E 009°54'0 0.0
2018-Jun-13 09:29N 63°34' E 009°54'0 0.0
2018-Jun-13 08:59N 63°34' E 009°54'0 0.0
2018-Jun-13 08:29N 63°34' E 009°54'0 0.0
2018-Jun-13 07:59N 63°34' E 009°54'0 0.0
2018-Jun-13 07:29N 63°34' E 009°54'0 0.0
2018-Jun-13 06:59N 63°34' E 009°54'0 0.0
2018-Jun-13 06:29N 63°34' E 009°54'0 0.0
2018-Jun-13 05:59N 63°34' E 009°54'0 0.0
2018-Jun-13 05:29N 63°34' E 009°54'0 0.0
2018-Jun-13 04:59N 63°34' E 009°54'0 0.0
2018-Jun-13 04:29N 63°34' E 009°54'0 0.0
2018-Jun-13 03:59N 63°34' E 009°54'0 0.0
2018-Jun-13 03:26N 63°34' E 009°54'0 0.0
2018-Jun-13 02:59N 63°34' E 009°54'0 0.0
2018-Jun-13 02:29N 63°34' E 009°54'0 0.0
2018-Jun-13 01:59N 63°34' E 009°54'0 0.0
2018-Jun-13 01:29N 63°34' E 009°54'0 0.0
2018-Jun-13 00:59N 63°34' E 009°54'0 0.0
2018-Jun-13 00:29N 63°34' E 009°54'0 0.0
2018-Jun-12 23:59N 63°34' E 009°54'0 0.0
2018-Jun-12 23:29N 63°34' E 009°54'0 0.0
2018-Jun-12 22:59N 63°34' E 009°54'0 0.0
2018-Jun-12 22:29N 63°34' E 009°54'0 0.0
2018-Jun-12 21:59N 63°34' E 009°54'0 0.0
2018-Jun-12 21:29N 63°34' E 009°54'0 0.0
2018-Jun-12 20:59N 63°34' E 009°54'0 0.0
2018-Jun-12 20:29N 63°34' E 009°54'0 0.0
2018-Jun-12 19:59N 63°34' E 009°54'0 0.0
2018-Jun-12 19:29N 63°34' E 009°54'0 0.0
2018-Jun-12 18:59N 63°34' E 009°54'0 0.0
2018-Jun-12 18:29N 63°34' E 009°54'0 0.0
2018-Jun-12 17:59N 63°34' E 009°54'0 0.0
2018-Jun-12 17:29N 63°34' E 009°54'0 0.0
2018-Jun-12 16:59N 63°34' E 009°54'0 0.0
2018-Jun-12 16:29N 63°34' E 009°54'0 0.0
2018-Jun-12 15:59N 63°34' E 009°54'0 0.0
2018-Jun-12 15:29N 63°34' E 009°54'0 0.0
2018-Jun-12 14:59N 63°34' E 009°54'0 0.0
2018-Jun-12 14:29N 63°34' E 009°54'0 0.0
2018-Jun-12 13:59N 63°34' E 009°54'0 0.0
2018-Jun-12 13:29N 63°34' E 009°54'0 0.0
2018-Jun-12 12:59N 63°34' E 009°54'0 0.0
2018-Jun-12 12:29N 63°34' E 009°54'0 0.0
2018-Jun-12 11:59N 63°34' E 009°54'0 0.0
2018-Jun-12 11:29N 63°34' E 009°54'0 0.0
2018-Jun-12 10:59N 63°34' E 009°54'0 0.0
2018-Jun-12 10:29N 63°34' E 009°54'0 0.0
2018-Jun-12 09:59N 63°34' E 009°54'0 0.0
2018-Jun-12 09:29N 63°34' E 009°54'0 0.0
2018-Jun-12 08:59N 63°34' E 009°54'0 0.0
2018-Jun-12 08:29N 63°34' E 009°54'0 0.0
2018-Jun-12 07:59N 63°34' E 009°54'0 0.0
2018-Jun-12 07:29N 63°34' E 009°54'0 0.0
2018-Jun-12 06:59N 63°34' E 009°54'0 0.0
2018-Jun-12 06:29N 63°34' E 009°54'0 0.0
2018-Jun-12 05:59N 63°34' E 009°54'0 0.0
2018-Jun-12 05:29N 63°34' E 009°54'0 0.0
2018-Jun-12 04:59N 63°34' E 009°54'0 0.0
2018-Jun-12 04:29N 63°34' E 009°54'0 0.0
2018-Jun-12 03:59N 63°34' E 009°54'0 0.0
2018-Jun-12 03:29N 63°34' E 009°54'0 0.0
2018-Jun-12 02:59N 63°34' E 009°54'0 0.0
2018-Jun-12 02:29N 63°34' E 009°54'0 0.0
2018-Jun-12 01:59N 63°34' E 009°54'0 0.0
2018-Jun-12 01:29N 63°34' E 009°54'0 0.0
2018-Jun-12 00:59N 63°34' E 009°54'0 0.0
2018-Jun-12 00:29N 63°34' E 009°54'0 0.0
2018-Jun-11 23:59N 63°34' E 009°54'0 0.0
2018-Jun-11 23:29N 63°34' E 009°54'0 0.0
2018-Jun-11 22:59N 63°34' E 009°54'0 0.0
2018-Jun-11 22:29N 63°34' E 009°54'0 0.0
2018-Jun-11 21:59N 63°34' E 009°54'0 0.0
2018-Jun-11 21:29N 63°34' E 009°54'0 0.0
2018-Jun-11 20:59N 63°34' E 009°54'0 0.0
2018-Jun-11 20:29N 63°34' E 009°54'0 0.0
2018-Jun-11 19:59N 63°34' E 009°54'0 0.0
2018-Jun-11 19:29N 63°34' E 009°54'0 0.0
2018-Jun-11 18:59N 63°34' E 009°54'0 0.0
2018-Jun-11 18:29N 63°34' E 009°54'0 0.0
2018-Jun-11 17:59N 63°34' E 009°54'0 0.0
2018-Jun-11 17:29N 63°34' E 009°54'0 0.0
2018-Jun-11 16:59N 63°34' E 009°54'0 0.0
2018-Jun-11 16:29N 63°34' E 009°54'0 0.0
2018-Jun-11 15:59N 63°34' E 009°54'0 0.0
2018-Jun-11 15:29N 63°34' E 009°54'0 0.0
2018-Jun-11 14:59N 63°34' E 009°54'0 0.0
2018-Jun-11 14:29N 63°34' E 009°54'0 0.0
2018-Jun-11 13:59N 63°34' E 009°54'0 0.0
2018-Jun-11 13:29N 63°34' E 009°54'0 0.0
2018-Jun-11 12:59N 63°34' E 009°54'0 0.0
2018-Jun-11 12:29N 63°34' E 009°54'0 0.0
2018-Jun-11 11:59N 63°34' E 009°54'0 0.0
2018-Jun-11 11:29N 63°34' E 009°54'0 0.0
2018-Jun-11 10:59N 63°34' E 009°54'0 0.0
2018-Jun-11 10:29N 63°34' E 009°54'0 0.0
2018-Jun-11 09:59N 63°34' E 009°54'0 0.0
2018-Jun-11 09:29N 63°34' E 009°54'0 0.1
2018-Jun-11 08:59N 63°34' E 009°54'  

Dump ship's entire track history